Station info - map view · info · telemetry · weather · raw · status · beacons · messages · bulletins · browse · moving · my account
Callsign, ship name or locator: Clear       
It is possible to search using wildcards (*?) after a prefix. Example: OH*
APRS station KC5YSN-7 - show graphs
Map loading...
Mic-E message: En route
Location: 41°11.11' N 82°25.16' W - locator EN81SE94QK - show map - static map
4.9 miles South bearing 192° from Wakeman, Huron County, Ohio, United States [?]
10.9 miles East bearing 111° from Norwalk, Huron County, Ohio, United States
43.4 miles Southwest bearing 240° from Cleveland, Cuyahoga County, Ohio, United States
67.5 miles Southeast bearing 119° from Toledo, Lucas County, Ohio, United States
Last position: 2019-01-21 09:49:16 EST (2d 11h ago)
2019-01-21 09:49:16 EST local time at Wakeman, United States [?]
Altitude: 732 ft
Course: 160°
Device: Yaesu: FT2D (ht)
Last path: KC5YSN-7>TQ1Q1Q via K8UI-1*,WIDE1*,K8UNS*,WIDE2*,qAR,KB8JIU (good)
Positions stored: 816
Packet rate: 103 seconds between packets on average during 1447 seconds.
Other SSIDs: KC5YSN
Stations near current position of KC5YSN-7 - show more
callsign distance last heard - EST      callsign distance last heard - EST
K8LAS-92.8 miles 224°2019-01-12 17:33:36 KD8JSE-94.1 miles 173°2019-01-12 13:19:34
AD8BB B4.3 miles 331°2018-12-30 20:21:13 AD8BB-B4.3 miles 331°2018-12-30 20:21:23
W8KF5.3 miles 333°2019-01-23 20:48:15 KC5YSN5.9 miles 35°2019-01-22 14:44:56
EW46306.8 miles 189°2019-01-23 20:45:53 CW97697.4 miles 60°2019-01-23 20:48:01
K8UI-18.6 miles 336°2019-01-23 20:46:52 W8DJG9.1 miles 15°2019-01-18 12:04:07
N8DH10.0 miles 57°2019-01-23 20:46:27 KC8CAD11.0 miles 37°2019-01-23 20:03:17
CLESVRKMA14.7 miles 57°2019-01-08 16:04:07 NICK-Y15.2 miles 30°2019-01-13 19:14:29
N1TVI-N15.2 miles 30°2019-01-13 18:52:32 N1TVI-115.2 miles 30°2019-01-23 20:37:20
N1TVI-915.4 miles 27°2019-01-23 17:50:50 KA8CNI16.6 miles 135°2019-01-09 10:31:47
WB3JVK17.7 miles 17°2019-01-23 18:04:19 DW427320.1 miles 123°2019-01-23 20:48:35
Stations which heard KC5YSN-7 directly on radio –
callsign pkts first heard - EST last heard longest (tx => rx) longest at - EST
K8UI-1 258 2019-01-01 14:43:26 2019-01-21 09:49:16 EN80SW > EN81SH 25.3 miles 1° 2019-01-01 14:43:26
W8BLV 57 2019-01-01 10:31:19 2019-01-11 16:03:38 EM79RG > EM79TM 19.8 miles 34° 2019-01-01 10:31:19
W8WE-1 30 2019-01-01 14:01:21 2019-01-21 09:25:09 EN81TC > EN80RR 26.3 miles 192° 2019-01-21 09:25:09
K8GPS-4 56 2019-01-01 12:26:09 2019-01-11 13:12:02 EM89HR > EM89OU 32.4 miles 73° 2019-01-01 12:26:09
KI6SZ-2 12 2019-01-01 10:57:44 2019-01-01 11:14:13 EM79TI > EM79WT 35.9 miles 25° 2019-01-01 11:14:13
N8WCT-1 44 2019-01-01 12:32:20 2019-01-11 12:52:30 EM89IS > EM89LX 19.8 miles 40° 2019-01-01 12:32:20
N8NQH-1 5 2019-01-01 11:46:10 2019-01-01 11:54:30 EM89CM > EM79XP 18.0 miles 298° 2019-01-01 11:54:30
W8MRG-3 3 2019-01-01 10:42:33 2019-01-01 10:48:56 EM79RH > EM79SD 11.2 miles 163° 2019-01-01 10:42:33
W8MRG-5 5 2019-01-01 10:46:45 2019-01-01 11:06:35 EM79TI > EM79TF 8.2 miles 178° 2019-01-01 11:06:35
W8VFR-1 35 2019-01-01 10:31:21 2019-01-11 16:09:01 EM79TI > EM79PO 23.6 miles 318° 2019-01-01 11:12:43
W8VFR-10 5 2019-01-01 10:39:28 2019-01-01 11:14:46 EM79TI > EM79PS 35.2 miles 326° 2019-01-01 11:14:46
W8VFR-11 5 2019-01-01 10:42:32 2019-01-01 11:14:11 EM79TI > EM79NO 32.8 miles 301° 2019-01-01 11:14:11
KB8UVN-11 8 2019-01-01 13:24:54 2019-01-11 12:46:25 EN80NH > EN80PD 16.0 miles 141° 2019-01-11 12:20:56
KB8UVN-7 4 2019-01-11 12:15:50 2019-01-11 12:45:23 EN80MC > EN80QE 20.0 miles 77° 2019-01-11 12:45:23
KD8FQQ-5 17 2019-01-01 10:31:49 2019-01-01 11:18:23 EM79RG > EM79QR 31.0 miles 355° 2019-01-01 10:31:49
K8QIK-11 2 2019-01-01 12:40:33 2019-01-01 13:05:50 EM89KU > EM89RW 28.2 miles 77° 2019-01-01 12:40:33
WB8ERJ 11 2019-01-01 13:57:15 2019-01-01 14:34:03 EN80QO > EN80SQ 9.4 miles 41° 2019-01-01 13:57:15

Only position packets which were originated by the station are shown here. The range statistics show some extra long hops, because some digipeaters do not correctly add themselves to the digipeater path. Please check the raw packets.
About this site
This page shows real-time information collected from the Automatic Position Reporting System Internet network (APRS-IS). APRS is used by amateur (ham) radio operators to transmit real-time position information, weather data, telemetry and messages over the radio. A vehicle equipped with a GPS receiver, a VHF transmitter or HF transceiver and a small computer device called a tracker transmits it's location, speed and course in a small data packet, which is then received by a nearby iGate receiving site which forwards the packet on the Internet. Systems connected to the Internet can send information on the APRS-IS without a radio transmitter, or collect and display information transmitted anywhere in the world.
FAQ · Blog · Discussion group · Linking to aprs.fi · AIS sites · Service status · Database statistics · Advertising on aprs.fi · Technical details · API · Change log · Planned changes · Credits and thanks · Terms Of Service · iPhone/iPad APRS